createdAt,value
2018-12-24T00:00:42.627Z,7.20
2018-12-24T00:03:11.440Z,7.20
2018-12-24T00:05:39.972Z,7.20
2018-12-24T00:08:08.546Z,7.20
2018-12-24T00:10:37.102Z,7.20
2018-12-24T00:13:05.638Z,7.20
2018-12-24T00:15:34.172Z,7.20
2018-12-24T00:18:02.971Z,7.20
2018-12-24T00:20:31.519Z,7.20
2018-12-24T00:23:00.324Z,7.20
2018-12-24T00:25:28.863Z,7.20
2018-12-24T00:27:57.684Z,7.10
2018-12-24T00:30:26.488Z,7.10
2018-12-24T00:32:55.028Z,7.20
2018-12-24T00:35:23.829Z,7.20
2018-12-24T00:37:52.375Z,7.10
2018-12-24T00:40:21.205Z,7.10
2018-12-24T00:42:49.743Z,7.10
2018-12-24T00:45:18.274Z,7.10
2018-12-24T00:47:47.109Z,7.20
2018-12-24T00:50:15.904Z,7.10
2018-12-24T00:52:44.439Z,7.10
2018-12-24T00:55:13.246Z,7.10
2018-12-24T00:57:41.783Z,7.10
2018-12-24T01:00:10.596Z,7.10
2018-12-24T01:02:39.120Z,7.10
2018-12-24T01:05:07.916Z,7.10
2018-12-24T01:07:36.692Z,7.20
2018-12-24T01:10:06.412Z,7.20
2018-12-24T01:12:34.980Z,7.20
2018-12-24T01:15:03.775Z,7.20
2018-12-24T01:17:32.327Z,7.20
2018-12-24T01:20:00.872Z,7.20
2018-12-24T01:22:29.688Z,7.30
2018-12-24T01:24:58.492Z,7.30
2018-12-24T01:27:27.291Z,7.20
2018-12-24T01:29:55.839Z,7.20
2018-12-24T01:32:24.667Z,7.20
2018-12-24T01:34:53.303Z,7.20
2018-12-24T01:37:22.117Z,7.20
2018-12-24T01:39:50.670Z,7.20
2018-12-24T01:42:19.231Z,7.20
2018-12-24T01:44:47.770Z,7.20
2018-12-24T01:47:16.299Z,7.20
2018-12-24T01:49:44.843Z,7.20
2018-12-24T01:52:13.633Z,7.20
2018-12-24T01:54:42.448Z,7.20
2018-12-24T01:57:10.984Z,7.20
2018-12-24T01:59:39.524Z,7.20
2018-12-24T02:02:08.066Z,7.20
2018-12-24T02:04:36.610Z,7.20
2018-12-24T02:07:05.436Z,7.20
2018-12-24T02:09:34.252Z,7.30
2018-12-24T02:12:03.060Z,7.30
2018-12-24T02:14:31.587Z,7.30
2018-12-24T02:17:00.412Z,7.40
2018-12-24T02:19:28.939Z,7.50
2018-12-24T02:21:57.873Z,7.50
2018-12-24T02:24:26.528Z,7.40
2018-12-24T02:26:55.364Z,7.40
2018-12-24T02:29:23.903Z,7.40
2018-12-24T02:31:52.510Z,7.40
2018-12-24T02:34:21.139Z,7.50
2018-12-24T02:36:49.952Z,7.40
2018-12-24T02:39:18.534Z,7.40
2018-12-24T02:41:47.409Z,7.40
2018-12-24T02:44:15.943Z,7.50
2018-12-24T02:46:44.761Z,7.50
2018-12-24T02:49:13.618Z,7.50
2018-12-24T02:51:42.167Z,7.50
2018-12-24T02:54:11.287Z,7.50
2018-12-24T02:56:39.960Z,7.50
2018-12-24T02:59:08.681Z,7.50
2018-12-24T03:01:37.296Z,7.50
2018-12-24T03:04:06.240Z,7.50
2018-12-24T03:06:35.035Z,7.50
2018-12-24T03:09:04.432Z,7.50
2018-12-24T03:11:33.227Z,7.50
2018-12-24T03:14:01.827Z,7.50
2018-12-24T03:16:30.625Z,7.50
2018-12-24T03:18:59.180Z,7.50
2018-12-24T03:21:27.987Z,7.50
2018-12-24T03:23:56.790Z,7.50
2018-12-24T03:26:25.316Z,7.60
2018-12-24T03:28:54.130Z,7.60
2018-12-24T03:31:22.922Z,7.50
2018-12-24T03:33:51.755Z,7.60
2018-12-24T03:36:20.356Z,7.60
2018-12-24T03:38:49.046Z,7.60
2018-12-24T03:41:17.975Z,7.60
2018-12-24T03:43:46.543Z,7.50
2018-12-24T03:46:15.138Z,7.60
2018-12-24T03:48:43.945Z,7.50
2018-12-24T03:51:12.618Z,7.50
2018-12-24T03:53:41.512Z,7.50
2018-12-24T03:56:10.051Z,7.50
2018-12-24T03:58:38.836Z,7.50
2018-12-24T04:01:07.651Z,7.50
2018-12-24T04:03:36.187Z,7.50
2018-12-24T04:06:04.989Z,7.50
2018-12-24T04:08:33.523Z,7.50
2018-12-24T04:11:02.340Z,7.50
2018-12-24T04:13:30.875Z,7.50
2018-12-24T04:15:59.688Z,7.50
2018-12-24T04:18:28.376Z,7.60
2018-12-24T04:20:56.983Z,7.60
2018-12-24T04:23:25.789Z,7.60
2018-12-24T04:25:54.656Z,7.50
2018-12-24T04:28:23.218Z,7.60
2018-12-24T04:30:51.771Z,7.50
2018-12-24T04:33:20.304Z,7.60
2018-12-24T04:35:48.872Z,7.50
2018-12-24T04:38:17.384Z,7.50
2018-12-24T04:40:45.927Z,7.50
2018-12-24T04:43:14.473Z,7.50
2018-12-24T04:45:43.066Z,7.50
2018-12-24T04:48:11.793Z,7.50
2018-12-24T04:50:40.447Z,7.50
2018-12-24T04:53:09.057Z,7.50
2018-12-24T04:55:37.866Z,7.50
2018-12-24T04:58:06.614Z,7.50
2018-12-24T05:00:35.222Z,7.40
2018-12-24T05:03:03.969Z,7.50
2018-12-24T05:05:32.859Z,7.50
2018-12-24T05:08:01.694Z,7.50
2018-12-24T05:10:30.483Z,7.50
2018-12-24T05:12:59.032Z,7.40
2018-12-24T05:15:27.580Z,7.40
2018-12-24T05:17:56.174Z,7.40
2018-12-24T05:20:24.759Z,7.30
2018-12-24T05:22:53.784Z,7.30
2018-12-24T05:25:22.409Z,7.30
2018-12-24T05:27:51.302Z,7.40
2018-12-24T05:30:20.211Z,7.40
2018-12-24T05:32:49.021Z,7.50
2018-12-24T05:35:17.715Z,7.40
2018-12-24T05:37:49.063Z,7.40
2018-12-24T05:40:17.734Z,7.40
2018-12-24T05:42:46.474Z,7.50
2018-12-24T05:45:18.016Z,7.50
2018-12-24T05:47:47.030Z,7.60
2018-12-24T05:50:16.058Z,7.50
2018-12-24T05:52:44.691Z,7.50
2018-12-24T05:55:13.598Z,7.50
2018-12-24T05:57:42.245Z,7.40
2018-12-24T06:00:11.133Z,7.40
2018-12-24T06:02:40.076Z,7.40
2018-12-24T06:05:08.700Z,7.40
2018-12-24T06:07:37.695Z,7.40
2018-12-24T06:10:06.577Z,7.40
2018-12-24T06:12:35.261Z,7.40
2018-12-24T06:15:04.012Z,7.30
2018-12-24T06:17:32.868Z,7.30
2018-12-24T06:20:01.492Z,7.30
2018-12-24T06:22:30.047Z,7.30
2018-12-24T06:24:58.868Z,7.30
2018-12-24T06:27:28.063Z,7.30
2018-12-24T06:29:57.247Z,7.30
2018-12-24T06:32:26.443Z,7.30
2018-12-24T06:34:55.127Z,7.30
2018-12-24T06:37:24.210Z,7.30
2018-12-24T06:39:52.792Z,7.30
2018-12-24T06:42:21.604Z,7.30
2018-12-24T06:44:50.154Z,7.30
2018-12-24T06:47:18.789Z,7.30
2018-12-24T06:49:47.660Z,7.30
2018-12-24T06:52:16.460Z,7.30
2018-12-24T06:54:45.268Z,7.30
2018-12-24T06:57:13.788Z,7.20
2018-12-24T06:59:42.612Z,7.20
2018-12-24T07:02:11.424Z,7.20
2018-12-24T07:04:40.219Z,7.20
2018-12-24T07:07:09.010Z,7.20
2018-12-24T07:09:37.823Z,7.20
2018-12-24T07:12:06.351Z,7.20
2018-12-24T07:14:35.139Z,7.20
2018-12-24T07:17:03.683Z,7.20
2018-12-24T07:19:32.516Z,7.30
2018-12-24T07:22:01.067Z,7.30
2018-12-24T07:24:29.888Z,7.40
2018-12-24T07:26:58.895Z,7.30
2018-12-24T07:29:27.769Z,7.30
2018-12-24T07:31:56.316Z,7.30
2018-12-24T07:34:32.170Z,7.30
2018-12-24T07:36:55.114Z,7.20
2018-12-24T07:39:23.646Z,7.10
2018-12-24T07:41:52.210Z,7.10
2018-12-24T07:44:24.300Z,7.10
2018-12-24T07:46:51.183Z,7.10
2018-12-24T07:49:20.003Z,7.10
2018-12-24T07:51:48.911Z,7.20
2018-12-24T07:54:17.707Z,7.10
2018-12-24T07:56:46.343Z,7.10
2018-12-24T07:59:15.136Z,7.00
2018-12-24T08:01:43.970Z,7.00
2018-12-24T08:04:12.867Z,7.00
2018-12-24T08:06:41.671Z,7.00
2018-12-24T08:09:10.199Z,6.90
2018-12-24T08:11:39.036Z,6.90
2018-12-24T08:14:07.643Z,6.90
2018-12-24T08:16:36.452Z,6.90
2018-12-24T08:19:04.986Z,6.80
2018-12-24T08:21:33.772Z,6.70
2018-12-24T08:24:02.564Z,6.60
2018-12-24T08:26:31.385Z,6.60
2018-12-24T08:29:00.244Z,6.70
2018-12-24T08:31:28.793Z,6.70
2018-12-24T08:33:57.331Z,6.70
2018-12-24T08:36:25.882Z,6.70
2018-12-24T08:38:54.430Z,6.60
2018-12-24T08:41:23.278Z,6.60
2018-12-24T08:43:52.183Z,6.60
2018-12-24T08:46:20.965Z,6.60
2018-12-24T08:48:49.524Z,6.60
2018-12-24T08:51:18.054Z,6.60
2018-12-24T08:53:46.952Z,6.50
2018-12-24T08:56:15.903Z,6.50
2018-12-24T08:58:44.551Z,6.50
2018-12-24T09:01:13.145Z,6.50
2018-12-24T09:03:41.696Z,6.50
2018-12-24T09:06:10.319Z,6.50
2018-12-24T09:08:39.349Z,6.50
2018-12-24T09:11:08.200Z,6.50
2018-12-24T09:13:36.778Z,6.50
2018-12-24T09:16:05.388Z,6.50
2018-12-24T09:18:34.255Z,6.50
2018-12-24T09:21:02.799Z,6.50
2018-12-24T09:23:31.608Z,6.60
2018-12-24T09:26:00.171Z,6.60
2018-12-24T09:28:28.984Z,6.60
2018-12-24T09:30:57.619Z,6.60
2018-12-24T09:33:26.165Z,6.60
2018-12-24T09:35:54.724Z,6.60
2018-12-24T09:38:23.256Z,6.60
2018-12-24T09:40:51.851Z,6.70
2018-12-24T09:43:20.443Z,6.80
2018-12-24T09:45:49.046Z,6.80
2018-12-24T09:48:17.568Z,6.70
2018-12-24T09:50:46.376Z,6.70
2018-12-24T09:53:15.209Z,6.70
2018-12-24T09:55:43.889Z,6.70
2018-12-24T09:58:12.456Z,6.70
2018-12-24T10:00:41.255Z,6.70
2018-12-24T10:03:10.115Z,6.80
2018-12-24T10:05:38.925Z,6.80
2018-12-24T10:08:10.655Z,6.80
2018-12-24T10:10:39.488Z,6.90
2018-12-24T10:13:08.277Z,7.00
2018-12-24T10:15:37.088Z,7.00
2018-12-24T10:18:05.715Z,7.10
2018-12-24T10:20:34.306Z,7.10
2018-12-24T10:23:02.831Z,7.20
2018-12-24T10:25:31.380Z,7.40
2018-12-24T10:27:59.951Z,7.50
2018-12-24T10:30:28.503Z,7.40
2018-12-24T10:32:57.335Z,7.30
2018-12-24T10:35:26.128Z,7.40
2018-12-24T10:37:54.949Z,7.30
2018-12-24T10:40:23.489Z,7.30
2018-12-24T10:42:52.035Z,7.50
2018-12-24T10:45:20.848Z,7.40
2018-12-24T10:47:49.439Z,7.40
2018-12-24T10:50:17.970Z,7.40
2018-12-24T10:52:46.815Z,7.40
2018-12-24T10:55:15.356Z,7.60
2018-12-24T10:57:44.189Z,7.80
2018-12-24T11:00:12.884Z,7.80
2018-12-24T11:02:41.439Z,7.70
2018-12-24T11:05:10.244Z,7.70
2018-12-24T11:07:39.047Z,7.60
2018-12-24T11:10:09.897Z,7.70
2018-12-24T11:12:38.528Z,7.60
2018-12-24T11:15:08.798Z,7.60
2018-12-24T11:17:37.600Z,7.50
2018-12-24T11:20:07.716Z,7.40
2018-12-24T11:22:36.534Z,7.40
2018-12-24T11:25:05.195Z,7.30
2018-12-24T11:27:33.735Z,7.40
2018-12-24T11:30:02.267Z,7.30
2018-12-24T11:32:30.851Z,7.40
2018-12-24T11:34:59.716Z,7.30
2018-12-24T11:37:28.303Z,7.50
2018-12-24T11:39:57.107Z,7.60
2018-12-24T11:42:26.076Z,7.70
2018-12-24T11:44:55.063Z,7.90
2018-12-24T11:47:23.605Z,7.90
2018-12-24T11:49:52.164Z,7.90
2018-12-24T11:52:20.701Z,7.90
2018-12-24T11:54:49.255Z,7.80
2018-12-24T11:57:18.093Z,7.70
2018-12-24T11:59:46.672Z,7.70
2018-12-24T12:02:15.195Z,7.50
2018-12-24T12:04:43.744Z,7.50
2018-12-24T12:07:12.626Z,7.40
2018-12-24T12:09:41.448Z,7.50
2018-12-24T12:12:10.308Z,7.40
2018-12-24T12:14:38.856Z,7.40
2018-12-24T12:17:07.390Z,7.40
2018-12-24T12:19:35.934Z,7.50
2018-12-24T12:22:04.463Z,7.40
2018-12-24T12:24:33.014Z,7.40
2018-12-24T12:27:01.563Z,7.40
2018-12-24T12:29:30.119Z,7.30
2018-12-24T12:31:58.912Z,7.30
2018-12-24T12:34:27.447Z,7.30
2018-12-24T12:36:55.983Z,7.30
2018-12-24T12:39:24.545Z,7.30
2018-12-24T12:41:53.087Z,7.30
2018-12-24T12:44:21.631Z,7.30
2018-12-24T12:46:50.161Z,7.30
2018-12-24T12:49:18.696Z,7.30
2018-12-24T12:51:47.545Z,7.40
2018-12-24T12:54:16.074Z,7.40
2018-12-24T12:56:44.911Z,7.30
2018-12-24T12:59:13.431Z,7.40
2018-12-24T13:01:41.986Z,7.30
2018-12-24T13:04:10.516Z,7.30
2018-12-24T13:06:39.388Z,7.30
2018-12-24T13:09:08.243Z,7.50
2018-12-24T13:11:37.064Z,7.50
2018-12-24T13:14:05.943Z,7.50
2018-12-24T13:16:34.480Z,7.50
2018-12-24T13:19:03.300Z,7.50
2018-12-24T13:21:32.111Z,7.50
2018-12-24T13:24:00.924Z,7.40
2018-12-24T13:26:29.479Z,7.40
2018-12-24T13:28:58.120Z,7.30
2018-12-24T13:31:26.673Z,7.30
2018-12-24T13:33:55.519Z,7.30
2018-12-24T13:36:24.411Z,7.40
2018-12-24T13:38:52.969Z,7.40
2018-12-24T13:41:21.589Z,7.40
2018-12-24T13:43:50.382Z,7.50
2018-12-24T13:46:18.907Z,7.40
2018-12-24T13:48:47.740Z,7.50
2018-12-24T13:51:16.543Z,7.50
2018-12-24T13:54:21.029Z,7.50
2018-12-24T13:56:49.760Z,7.60
2018-12-24T13:59:18.447Z,7.60
2018-12-24T14:01:46.871Z,7.50
2018-12-24T14:04:15.338Z,7.50
2018-12-24T14:06:44.050Z,7.40
2018-12-24T14:09:12.506Z,7.30
2018-12-24T14:11:41.264Z,7.30
2018-12-24T14:14:10.004Z,7.30
2018-12-24T14:16:38.779Z,7.30
2018-12-24T14:19:07.276Z,7.30
2018-12-24T14:21:35.704Z,7.40
2018-12-24T14:24:04.167Z,7.40
2018-12-24T14:26:32.867Z,7.40
2018-12-24T14:29:01.303Z,7.40
2018-12-24T14:31:30.009Z,7.30
2018-12-24T14:33:58.706Z,7.30
2018-12-24T14:36:27.383Z,7.30
2018-12-24T14:38:55.822Z,7.20
2018-12-24T14:41:24.252Z,7.20
2018-12-24T14:43:52.861Z,7.10
2018-12-24T14:46:25.629Z,7.10
2018-12-24T14:48:51.715Z,7.00
2018-12-24T14:51:20.131Z,6.90
2018-12-24T14:53:48.835Z,6.90
2018-12-24T14:56:17.274Z,6.80
2018-12-24T14:58:46.000Z,6.80
2018-12-24T15:01:14.446Z,6.80
2018-12-24T15:03:42.953Z,6.70
2018-12-24T15:06:11.707Z,6.70
2018-12-24T15:08:40.160Z,6.60
2018-12-24T15:11:08.611Z,6.50
2018-12-24T15:13:37.367Z,6.40
2018-12-24T15:16:05.797Z,6.30
2018-12-24T15:18:34.598Z,6.20
2018-12-24T15:21:03.319Z,6.20
2018-12-24T15:23:32.023Z,6.10
2018-12-24T15:26:00.466Z,6.10
2018-12-24T15:28:29.167Z,6.00
2018-12-24T15:30:57.606Z,6.00
2018-12-24T15:33:26.040Z,5.90
2018-12-24T15:35:54.510Z,5.80
2018-12-24T15:38:23.199Z,5.80
2018-12-24T15:40:51.649Z,5.70
2018-12-24T15:43:20.387Z,5.60
2018-12-24T15:45:48.837Z,5.50
2018-12-24T15:48:17.260Z,5.50
2018-12-24T15:50:46.031Z,5.50
2018-12-24T15:53:14.475Z,5.50
2018-12-24T15:55:43.186Z,5.40
2018-12-24T15:58:11.922Z,5.40
2018-12-24T16:00:40.991Z,5.50
2018-12-24T16:03:09.779Z,5.50
2018-12-24T16:05:38.673Z,5.50
2018-12-24T16:08:07.354Z,5.50
2018-12-24T16:10:36.126Z,5.50
2018-12-24T16:13:04.913Z,5.60
2018-12-24T16:15:34.222Z,5.60
2018-12-24T16:18:02.978Z,5.70
2018-12-24T16:20:31.708Z,5.70
2018-12-24T16:23:00.352Z,5.60
2018-12-24T16:25:29.167Z,5.50
2018-12-24T16:27:57.861Z,5.60
2018-12-24T16:30:26.482Z,5.60
2018-12-24T16:32:55.316Z,5.70
2018-12-24T16:35:24.152Z,5.70
2018-12-24T16:37:52.700Z,5.80
2018-12-24T16:40:21.188Z,5.80
2018-12-24T16:42:50.137Z,5.90
2018-12-24T16:45:18.963Z,5.90
2018-12-24T16:47:47.455Z,5.90
2018-12-24T16:50:16.282Z,6.00
2018-12-24T16:52:45.242Z,5.90
2018-12-24T16:55:13.834Z,5.80
2018-12-24T16:57:42.717Z,5.80
2018-12-24T17:00:11.583Z,5.80
2018-12-24T17:02:40.485Z,5.70
2018-12-24T17:05:09.373Z,5.80
2018-12-24T17:07:37.953Z,5.90
2018-12-24T17:10:07.777Z,5.80
2018-12-24T17:12:36.347Z,5.80
2018-12-24T17:15:05.431Z,5.80
2018-12-24T17:17:33.927Z,5.80
2018-12-24T17:20:02.386Z,5.80
2018-12-24T17:22:30.823Z,5.70
2018-12-24T17:24:59.279Z,5.70
2018-12-24T17:27:28.027Z,5.80
2018-12-24T17:29:56.752Z,5.80
2018-12-24T17:32:25.228Z,5.80
2018-12-24T17:34:54.029Z,5.80
2018-12-24T17:37:22.496Z,5.90
2018-12-24T17:39:51.462Z,5.90
2018-12-24T17:42:20.065Z,5.90
2018-12-24T17:44:48.820Z,5.90
2018-12-24T17:47:17.606Z,5.80
2018-12-24T17:49:46.139Z,5.80
2018-12-24T17:52:14.651Z,5.80
2018-12-24T17:54:43.172Z,5.80
2018-12-24T17:57:11.995Z,5.80
2018-12-24T17:59:40.482Z,5.80
2018-12-24T18:02:08.927Z,5.80
2018-12-24T18:04:37.786Z,5.70
2018-12-24T18:07:06.595Z,5.70
2018-12-24T18:09:35.425Z,5.70
2018-12-24T18:12:03.910Z,5.70
2018-12-24T18:14:32.725Z,5.70
2018-12-24T18:17:01.204Z,5.70
2018-12-24T18:19:29.687Z,5.70
2018-12-24T18:21:58.177Z,5.70
2018-12-24T18:24:26.983Z,5.70
2018-12-24T18:26:55.823Z,5.70
2018-12-24T18:29:24.307Z,5.70
2018-12-24T18:31:55.700Z,5.80
2018-12-24T18:34:24.230Z,5.80
2018-12-24T18:36:52.751Z,5.80
2018-12-24T18:39:21.569Z,5.80
2018-12-24T18:41:50.080Z,5.90
2018-12-24T18:44:18.589Z,5.90
2018-12-24T18:46:47.327Z,5.90
2018-12-24T18:49:15.789Z,6.00
2018-12-24T18:51:44.544Z,6.00
2018-12-24T18:54:13.235Z,6.00
2018-12-24T18:56:41.701Z,6.10
2018-12-24T18:59:10.504Z,6.10
2018-12-24T19:01:39.294Z,6.00
2018-12-24T19:04:07.983Z,6.10
2018-12-24T19:06:36.761Z,6.10
2018-12-24T19:09:05.977Z,6.20
2018-12-24T19:11:34.472Z,6.20
2018-12-24T19:14:03.352Z,6.20
2018-12-24T19:16:32.210Z,6.20
2018-12-24T19:19:00.773Z,6.20
2018-12-24T19:21:29.322Z,6.30
2018-12-24T19:23:57.882Z,6.20
2018-12-24T19:26:26.432Z,6.30
2018-12-24T19:28:54.944Z,6.30
2018-12-24T19:31:23.413Z,6.30
2018-12-24T19:33:51.875Z,6.30
2018-12-24T19:36:20.329Z,6.30
2018-12-24T19:38:49.131Z,6.30
2018-12-24T19:41:17.951Z,6.20
2018-12-24T19:43:46.411Z,6.20
2018-12-24T19:46:14.982Z,6.20
2018-12-24T19:48:43.512Z,6.20
2018-12-24T19:51:12.043Z,6.20
2018-12-24T19:53:40.803Z,6.20
2018-12-24T19:56:09.272Z,6.20
2018-12-24T19:58:37.811Z,6.20
2018-12-24T20:01:06.567Z,6.10
2018-12-24T20:03:35.109Z,6.10
2018-12-24T20:06:04.040Z,6.10
2018-12-24T20:08:32.599Z,6.10
2018-12-24T20:11:01.258Z,6.10
2018-12-24T20:13:30.112Z,6.20
2018-12-24T20:15:58.985Z,6.30
2018-12-24T20:18:27.862Z,6.30
2018-12-24T20:20:56.721Z,6.40
2018-12-24T20:23:25.258Z,6.40
2018-12-24T20:25:54.004Z,6.40
2018-12-24T20:28:22.534Z,6.40
2018-12-24T20:30:51.001Z,6.40
2018-12-24T20:33:19.459Z,6.40
2018-12-24T20:35:48.002Z,6.40
2018-12-24T20:38:16.756Z,6.50
2018-12-24T20:40:45.464Z,6.40
2018-12-24T20:43:13.973Z,6.40
2018-12-24T20:45:42.783Z,6.30
2018-12-24T20:48:11.282Z,6.30
2018-12-24T20:50:40.231Z,6.30
2018-12-24T20:53:09.080Z,6.40
2018-12-24T20:55:37.562Z,6.40
2018-12-24T20:58:06.431Z,6.40
2018-12-24T21:00:35.232Z,6.40
2018-12-24T21:03:03.804Z,6.40
2018-12-24T21:05:32.624Z,6.40
2018-12-24T21:08:01.296Z,6.40
2018-12-24T21:10:30.065Z,6.30
2018-12-24T21:12:58.875Z,6.30
2018-12-24T21:15:27.385Z,6.30
2018-12-24T21:17:55.852Z,6.30
2018-12-24T21:20:24.705Z,6.30
2018-12-24T21:22:53.134Z,6.30
2018-12-24T21:25:21.953Z,6.40
2018-12-24T21:27:50.745Z,6.40
2018-12-24T21:30:19.188Z,6.40
2018-12-24T21:32:47.929Z,6.40
2018-12-24T21:35:16.891Z,6.40
2018-12-24T21:37:45.335Z,6.40
2018-12-24T21:40:14.522Z,6.50
2018-12-24T21:42:42.982Z,6.40
2018-12-24T21:45:11.767Z,6.40
2018-12-24T21:47:40.210Z,6.40
2018-12-24T21:50:08.660Z,6.40
2018-12-24T21:52:37.098Z,6.40
2018-12-24T21:55:05.645Z,6.40
2018-12-24T21:57:34.564Z,6.40
2018-12-24T22:00:03.019Z,6.40
2018-12-24T22:02:31.512Z,6.40
2018-12-24T22:04:59.959Z,6.40
2018-12-24T22:07:28.403Z,6.40
2018-12-24T22:09:57.124Z,6.40
2018-12-24T22:12:25.898Z,6.40
2018-12-24T22:14:54.611Z,6.30
2018-12-24T22:17:23.047Z,6.30
2018-12-24T22:19:51.511Z,6.30
2018-12-24T22:22:20.782Z,6.30
2018-12-24T22:24:49.297Z,6.30
2018-12-24T22:27:17.812Z,6.30
2018-12-24T22:29:46.278Z,6.20
2018-12-24T22:32:14.832Z,6.20
2018-12-24T22:34:43.587Z,6.10
2018-12-24T22:37:12.216Z,6.20
2018-12-24T22:39:40.648Z,6.30
2018-12-24T22:42:09.423Z,6.30
2018-12-24T22:44:38.208Z,6.40
2018-12-24T22:47:06.738Z,6.40
2018-12-24T22:49:35.452Z,6.40
2018-12-24T22:52:03.896Z,6.40
2018-12-24T22:54:32.616Z,6.40
2018-12-24T22:57:01.430Z,6.50
2018-12-24T22:59:30.216Z,6.50
2018-12-24T23:01:58.707Z,6.50
2018-12-24T23:04:27.225Z,6.50
2018-12-24T23:06:55.703Z,6.50
2018-12-24T23:09:24.436Z,6.40
2018-12-24T23:11:53.133Z,6.40
2018-12-24T23:14:21.587Z,6.30
2018-12-24T23:16:50.308Z,6.30
2018-12-24T23:19:19.024Z,6.30
2018-12-24T23:21:47.788Z,6.30
2018-12-24T23:24:16.484Z,6.20
2018-12-24T23:26:44.987Z,6.20
2018-12-24T23:29:13.716Z,6.20
2018-12-24T23:31:42.168Z,6.20
2018-12-24T23:34:10.680Z,6.10
2018-12-24T23:36:39.444Z,6.10
2018-12-24T23:39:08.175Z,6.10
2018-12-24T23:41:36.634Z,6.10
2018-12-24T23:44:05.091Z,6.20
2018-12-24T23:46:33.799Z,6.20
2018-12-24T23:49:02.523Z,6.20
2018-12-24T23:51:31.309Z,6.20
2018-12-24T23:53:59.779Z,6.20
2018-12-24T23:56:28.565Z,6.30
2018-12-24T23:58:57.068Z,6.30
